Back to Top

Language: 

My Weather Underground Personal Weather Station Historical Data with Graphs...

Delerius Weather Station Historical Data
Daily Summary for November 12, 2017 Units:  Metric    English   Both
« Previous Day
Next Day »
Daily Weekly Monthly Yearly Custom
  High: Low: Average:
Temperature: 8.2 °C 3.1 °C 5.5 °C
Dew Point: 3.6 °C -0.9 °C 1.3 °C
Humidity: 88 % 61 % 75 %
Wind Speed: 25.7 km/h 0 km/h 12.9 km/h
Wind Gust: 40.2 km/h - -
Wind:- - WNW
Pressure: 1022.9 hPa 1007 hPa -
Precipitation: 0 mm    
Historical Graphs
 
 
Tabular Data for November 12, 2017
Time Temperature Dew Point Pressure Wind Wind Speed Wind Gust Humidity Rainfall Rate (Hourly) solar Conditions
00:02 4.8 °C 2.8 °C 1009.4 hPa WNW 3.2 km/h 6.4 km/h 87 % 0 mm 0 W/m2
00:07 4.7 °C 2.7 °C 1009.4 hPa WNW 4.8 km/h 8 km/h 87 % 0 mm 0 W/m2
00:12 4.7 °C 2.7 °C 1009.7 hPa WNW 4.8 km/h 8 km/h 87 % 0 mm 0 W/m2
00:17 4.7 °C 2.7 °C 1009.4 hPa WNW 4.8 km/h 9.7 km/h 87 % 0 mm 0 W/m2
00:22 4.8 °C 3 °C 1009.4 hPa West 3.2 km/h 8 km/h 88 % 0 mm 0 W/m2
00:27 4.9 °C 3.1 °C 1009.4 hPa West 1.6 km/h 3.2 km/h 88 % 0 mm 0 W/m2
00:32 4.9 °C 3.1 °C 1009.4 hPa WNW 3.2 km/h 6.4 km/h 88 % 0 mm 0 W/m2
00:37 4.9 °C 3.1 °C 1009.4 hPa WNW 4.8 km/h 11.3 km/h 88 % 0 mm 0 W/m2
00:42 4.9 °C 3.1 °C 1009.4 hPa WNW 8 km/h 12.9 km/h 88 % 0 mm 0 W/m2
00:47 5.1 °C 3.1 °C 1009.4 hPa WNW 8 km/h 11.3 km/h 87 % 0 mm 0 W/m2
00:52 5.2 °C 3.2 °C 1009.4 hPa WNW 8 km/h 12.9 km/h 87 % 0 mm 0 W/m2
00:57 5.3 °C 3.3 °C 1009.4 hPa WNW 4.8 km/h 8 km/h 87 % 0 mm 0 W/m2
01:02 5.3 °C 3.2 °C 1009.4 hPa Calm   4.8 km/h 86 % 0 mm 0 W/m2
01:07 5.3 °C 3.2 °C 1009 hPa Calm   1.6 km/h 86 % 0 mm 0 W/m2
01:13 5.3 °C 3.2 °C 1009 hPa Calm     86 % 0 mm 0 W/m2
01:18 5.2 °C 3.1 °C 1009 hPa Calm     86 % 0 mm 0 W/m2
01:23 5.2 °C 3.1 °C 1009 hPa Calm     86 % 0 mm 0 W/m2
01:28 5.1 °C 2.9 °C 1009 hPa WNW 3.2 km/h 8 km/h 86 % 0 mm 0 W/m2
01:33 5.1 °C 3.1 °C 1009 hPa WNW 1.6 km/h 6.4 km/h 87 % 0 mm 0 W/m2
01:38 5.1 °C 3.1 °C 1009 hPa WNW 1.6 km/h 6.4 km/h 87 % 0 mm 0 W/m2
01:43 5.1 °C 3.1 °C 1008.7 hPa WNW 4.8 km/h 8 km/h 87 % 0 mm 0 W/m2
01:48 5.2 °C 3.2 °C 1008.7 hPa WNW 3.2 km/h 6.4 km/h 87 % 0 mm 0 W/m2
01:53 5.2 °C 3.2 °C 1009 hPa WNW 8 km/h 12.9 km/h 87 % 0 mm 0 W/m2
01:58 5.3 °C 3.3 °C 1008.7 hPa West 9.7 km/h 16.1 km/h 87 % 0 mm 0 W/m2
02:03 5.4 °C 3.4 °C 1008.7 hPa WNW 11.3 km/h 17.7 km/h 87 % 0 mm 0 W/m2
02:08 5.4 °C 3.4 °C 1008.7 hPa WNW 11.3 km/h 14.5 km/h 87 % 0 mm 0 W/m2
02:13 5.5 °C 3.3 °C 1008.7 hPa WNW 9.7 km/h 16.1 km/h 86 % 0 mm 0 W/m2
02:18 5.6 °C 3.4 °C 1008.7 hPa WNW 11.3 km/h 19.3 km/h 86 % 0 mm 0 W/m2
02:23 5.7 °C 3.6 °C 1009 hPa WNW 9.7 km/h 14.5 km/h 86 % 0 mm 0 W/m2
02:28 5.7 °C 3.6 °C 1008.7 hPa WNW 6.4 km/h 11.3 km/h 86 % 0 mm 0 W/m2
02:33 5.7 °C 3.6 °C 1008.4 hPa WNW 6.4 km/h 12.9 km/h 86 % 0 mm 0 W/m2
02:38 5.7 °C 3.6 °C 1008.4 hPa WNW 6.4 km/h 9.7 km/h 86 % 0 mm 0 W/m2
02:43 5.7 °C 3.6 °C 1008.4 hPa WNW 6.4 km/h 12.9 km/h 86 % 0 mm 0 W/m2
02:48 5.6 °C 3.4 °C 1008.4 hPa WNW 6.4 km/h 11.3 km/h 86 % 0 mm 0 W/m2
02:53 5.6 °C 3.4 °C 1008.4 hPa WNW 9.7 km/h 12.9 km/h 86 % 0 mm 0 W/m2
02:58 5.6 °C 3.4 °C 1008.4 hPa WNW 6.4 km/h 11.3 km/h 86 % 0 mm 0 W/m2
03:03 5.6 °C 3.4 °C 1008 hPa West 8 km/h 11.3 km/h 86 % 0 mm 0 W/m2
03:08 5.6 °C 3.4 °C 1008 hPa West 6.4 km/h 11.3 km/h 86 % 0 mm 0 W/m2
03:13 5.5 °C 3.3 °C 1008 hPa WNW 8 km/h 12.9 km/h 86 % 0 mm 0 W/m2
03:18 5.5 °C 3.3 °C 1008 hPa WNW 6.4 km/h 12.9 km/h 86 % 0 mm 0 W/m2
03:21 5.5 °C 3.2 °C 1008 hPa WNW 9.7 km/h 16.1 km/h 85 % 0 mm 0 W/m2
03:24 5.5 °C 3.2 °C 1008 hPa WNW 9.7 km/h 17.7 km/h 85 % 0 mm 0 W/m2
03:25 5.5 °C 3.2 °C 1008 hPa WNW 11.3 km/h 17.7 km/h 85 % 0 mm 0 W/m2
03:29 5.5 °C 3.2 °C 1008 hPa WNW 12.9 km/h 17.7 km/h 85 % 0 mm 0 W/m2
03:30 5.5 °C 3.2 °C 1008 hPa WNW 12.9 km/h 17.7 km/h 85 % 0 mm 0 W/m2
03:35 5.5 °C 3.2 °C 1008 hPa WNW 9.7 km/h 16.1 km/h 85 % 0 mm 0 W/m2
03:40 5.6 °C 3.3 °C 1008 hPa WNW 11.3 km/h 16.1 km/h 85 % 0 mm 0 W/m2
03:45 5.6 °C 3.3 °C 1008 hPa West 9.7 km/h 17.7 km/h 85 % 0 mm 0 W/m2
03:50 5.6 °C 3.3 °C 1007.7 hPa West 12.9 km/h 19.3 km/h 85 % 0 mm 0 W/m2
03:55 5.6 °C 3.1 °C 1007.7 hPa West 14.5 km/h 24.1 km/h 84 % 0 mm 0 W/m2
04:00 5.6 °C 2.9 °C 1007.7 hPa WNW 14.5 km/h 20.9 km/h 83 % 0 mm 0 W/m2
04:05 5.6 °C 2.9 °C 1007.7 hPa West 16.1 km/h 22.5 km/h 83 % 0 mm 0 W/m2
04:10 5.5 °C 2.7 °C 1007.7 hPa WNW 14.5 km/h 20.9 km/h 82 % 0 mm 0 W/m2
04:11 5.5 °C 2.7 °C 1007.7 hPa West 14.5 km/h 24.1 km/h 82 % 0 mm 0 W/m2
04:16 5.4 °C 2.6 °C 1007.3 hPa WNW 14.5 km/h 22.5 km/h 82 % 0 mm 0 W/m2
04:21 5.4 °C 2.4 °C 1007.3 hPa WNW 9.7 km/h 17.7 km/h 81 % 0 mm 0 W/m2
04:26 5.3 °C 2.3 °C 1007 hPa West 12.9 km/h 19.3 km/h 81 % 0 mm 0 W/m2
04:31 5.2 °C 2.2 °C 1007 hPa WNW 12.9 km/h 20.9 km/h 81 % 0 mm 0 W/m2
04:36 5.1 °C 2.1 °C 1007.3 hPa WNW 11.3 km/h 17.7 km/h 81 % 0 mm 0 W/m2
04:41 5.1 °C 2.1 °C 1007 hPa WNW 14.5 km/h 20.9 km/h 81 % 0 mm 0 W/m2
04:46 5 °C 2 °C 1007 hPa WNW 11.3 km/h 19.3 km/h 81 % 0 mm 0 W/m2
04:51 4.9 °C 2.1 °C 1007.3 hPa WNW 12.9 km/h 19.3 km/h 82 % 0 mm 0 W/m2
04:56 4.8 °C 2 °C 1007.3 hPa WNW 11.3 km/h 19.3 km/h 82 % 0 mm 0 W/m2
05:01 4.8 °C 2 °C 1007.3 hPa WNW 9.7 km/h 17.7 km/h 82 % 0 mm 0 W/m2
05:06 4.7 °C 2.1 °C 1007.3 hPa WNW 12.9 km/h 19.3 km/h 83 % 0 mm 0 W/m2
05:11 4.7 °C 2.1 °C 1007.3 hPa WNW 9.7 km/h 17.7 km/h 83 % 0 mm 0 W/m2
05:16 4.6 °C 2.1 °C 1007.3 hPa WNW 11.3 km/h 14.5 km/h 84 % 0 mm 0 W/m2
05:21 4.6 °C 2.1 °C 1007.3 hPa WNW 11.3 km/h 20.9 km/h 84 % 0 mm 0 W/m2
05:26 4.5 °C 2.1 °C 1007.3 hPa WNW 14.5 km/h 22.5 km/h 84 % 0 mm 0 W/m2
05:31 4.5 °C 2.2 °C 1007 hPa WNW 14.5 km/h 24.1 km/h 85 % 0 mm 0 W/m2
05:36 4.5 °C 2.2 °C 1007 hPa WNW 11.3 km/h 19.3 km/h 85 % 0 mm 0 W/m2
05:41 4.4 °C 2.1 °C 1007 hPa WNW 12.9 km/h 20.9 km/h 85 % 0 mm 0 W/m2
05:46 4.4 °C 2.1 °C 1007 hPa WNW 14.5 km/h 25.7 km/h 85 % 0 mm 0 W/m2
05:52 4.4 °C 2.1 °C 1007 hPa WNW 11.3 km/h 20.9 km/h 85 % 0 mm 0 W/m2
05:57 4.4 °C 2.1 °C 1007 hPa WNW 16.1 km/h 25.7 km/h 85 % 0 mm 0 W/m2
06:02 4.4 °C 2.1 °C 1007 hPa WNW 14.5 km/h 25.7 km/h 85 % 0 mm 0 W/m2
06:07 4.3 °C 2 °C 1007 hPa WNW 12.9 km/h 19.3 km/h 85 % 0 mm 0 W/m2
06:12 4.3 °C 2 °C 1007.3 hPa WNW 12.9 km/h 22.5 km/h 85 % 0 mm 0 W/m2
06:17 4.3 °C 2 °C 1007.3 hPa WNW 16.1 km/h 25.7 km/h 85 % 0 mm 0 W/m2
06:22 4.3 °C 2 °C 1007.3 hPa WNW 16.1 km/h 29 km/h 85 % 0 mm 0 W/m2
06:27 4.3 °C 2 °C 1007.3 hPa WNW 16.1 km/h 24.1 km/h 85 % 0 mm 0 W/m2
06:32 4.3 °C 2 °C 1007.3 hPa WNW 16.1 km/h 29 km/h 85 % 0 mm 0 W/m2
06:37 4.3 °C 2 °C 1007.3 hPa WNW 12.9 km/h 22.5 km/h 85 % 0 mm 0 W/m2
06:42 4.3 °C 1.8 °C 1007 hPa WNW 17.7 km/h 30.6 km/h 84 % 0 mm 0 W/m2
06:47 4.3 °C 2 °C 1007 hPa WNW 19.3 km/h 30.6 km/h 85 % 0 mm 0 W/m2
06:52 4.3 °C 2 °C 1007 hPa WNW 17.7 km/h 29 km/h 85 % 0 mm 0 W/m2
06:53 4.3 °C 2 °C 1007 hPa WNW 19.3 km/h 35.4 km/h 85 % 0 mm 0 W/m2
06:58 4.3 °C 1.8 °C 1007 hPa WNW 16.1 km/h 24.1 km/h 84 % 0 mm 0 W/m2
07:04 4.2 °C 1.9 °C 1007 hPa WNW 14.5 km/h 22.5 km/h 85 % 0 mm 0 W/m2
07:09 4.2 °C 1.7 °C 1007.3 hPa WNW 12.9 km/h 22.5 km/h 84 % 0 mm 0 W/m2
07:14 4.2 °C 1.7 °C 1007.3 hPa NW 8 km/h 14.5 km/h 84 % 0 mm 0 W/m2
07:19 4.1 °C 1.8 °C 1007.3 hPa NW 11.3 km/h 17.7 km/h 85 % 0 mm 0 W/m2
07:24 4.1 °C 1.8 °C 1007.3 hPa NW 14.5 km/h 24.1 km/h 85 % 0 mm 5 W/m2
07:29 4 °C 1.7 °C 1007.7 hPa NW 12.9 km/h 20.9 km/h 85 % 0 mm 7 W/m2
07:34 4 °C 1.7 °C 1007.3 hPa WNW 12.9 km/h 20.9 km/h 85 % 0 mm 9 W/m2
07:39 4 °C 1.7 °C 1007.7 hPa WNW 14.5 km/h 20.9 km/h 85 % 0 mm 11 W/m2
07:44 4.1 °C 1.8 °C 1007.7 hPa WNW 16.1 km/h 25.7 km/h 85 % 0 mm 12 W/m2
07:49 4.1 °C 1.8 °C 1007.7 hPa WNW 14.5 km/h 22.5 km/h 85 % 0 mm 16 W/m2
07:54 4.1 °C 1.8 °C 1007.7 hPa WNW 16.1 km/h 20.9 km/h 85 % 0 mm 16 W/m2
07:59 4.1 °C 1.8 °C 1008 hPa WNW 14.5 km/h 24.1 km/h 85 % 0 mm 18 W/m2
08:04 4.1 °C 1.8 °C 1008 hPa WNW 12.9 km/h 17.7 km/h 85 % 0 mm 19 W/m2
08:09 4.1 °C 1.8 °C 1008 hPa WNW 14.5 km/h 22.5 km/h 85 % 0 mm 21 W/m2
08:14 4.1 °C 1.8 °C 1007.7 hPa WNW 11.3 km/h 19.3 km/h 85 % 0 mm 23 W/m2
08:19 4.1 °C 1.8 °C 1007.7 hPa NW 14.5 km/h 20.9 km/h 85 % 0 mm 23 W/m2
08:24 4.2 °C 1.9 °C 1007.7 hPa WNW 8 km/h 16.1 km/h 85 % 0 mm 25 W/m2
08:29 4.2 °C 1.7 °C 1007.7 hPa NW 11.3 km/h 16.1 km/h 84 % 0 mm 26 W/m2
08:34 4.2 °C 1.7 °C 1008 hPa NW 9.7 km/h 14.5 km/h 84 % 0 mm 26 W/m2
08:39 4.3 °C 1.7 °C 1008 hPa NW 14.5 km/h 24.1 km/h 83 % 0 mm 28 W/m2
08:44 4.4 °C 1.6 °C 1008 hPa NW 17.7 km/h 30.6 km/h 82 % 0 mm 28 W/m2
08:49 4.6 °C 1.6 °C 1008 hPa NW 16.1 km/h 29 km/h 81 % 0 mm 32 W/m2
08:51 4.6 °C 1.4 °C 1008 hPa NW 19.3 km/h 37 km/h 80 % 0 mm 33 W/m2
08:56 4.7 °C 1.6 °C 1008 hPa WNW 17.7 km/h 25.7 km/h 80 % 0 mm 35 W/m2
09:01 4.7 °C 1.4 °C 1008.4 hPa NW 17.7 km/h 35.4 km/h 79 % 0 mm 172 W/m2
09:06 4.8 °C 1.4 °C 1008.4 hPa NW 16.1 km/h 32.2 km/h 79 % 0 mm 185 W/m2
09:11 4.9 °C 1.6 °C 1008.4 hPa NW 17.7 km/h 30.6 km/h 79 % 0 mm 195 W/m2
09:16 5.1 °C 1.6 °C 1008.4 hPa NW 14.5 km/h 25.7 km/h 78 % 0 mm 202 W/m2
09:21 5.3 °C 1.6 °C 1008.4 hPa NW 22.5 km/h 37 km/h 77 % 0 mm 211 W/m2
09:26 5.4 °C 1.5 °C 1008.4 hPa NW 22.5 km/h 38.6 km/h 76 % 0 mm 221 W/m2
09:31 5.5 °C 1.4 °C 1008.7 hPa NW 17.7 km/h 33.8 km/h 75 % 0 mm 229 W/m2
09:36 5.6 °C 1.3 °C 1008.7 hPa NW 16.1 km/h 32.2 km/h 74 % 0 mm 237 W/m2
09:41 5.7 °C 1.4 °C 1008.7 hPa NW 19.3 km/h 33.8 km/h 74 % 0 mm 243 W/m2
09:46 5.8 °C 1.3 °C 1009 hPa NW 20.9 km/h 35.4 km/h 73 % 0 mm 250 W/m2
09:51 5.8 °C 1.3 °C 1009 hPa NW 14.5 km/h 29 km/h 73 % 0 mm 258 W/m2
09:56 5.9 °C 1.4 °C 1009 hPa NW 16.1 km/h 22.5 km/h 73 % 0 mm 265 W/m2
10:01 6.1 °C 1.6 °C 1009 hPa WNW 19.3 km/h 33.8 km/h 73 % 0 mm 274 W/m2
10:06 6.2 °C 1.5 °C 1009.4 hPa NW 14.5 km/h 25.7 km/h 72 % 0 mm 278 W/m2
10:11 6.3 °C 1.6 °C 1009.4 hPa NW 19.3 km/h 33.8 km/h 72 % 0 mm 285 W/m2
10:16 6.3 °C 1.4 °C 1009.4 hPa NW 17.7 km/h 32.2 km/h 71 % 0 mm 292 W/m2
10:21 6.4 °C 1.5 °C 1009.7 hPa WNW 20.9 km/h 37 km/h 71 % 0 mm 295 W/m2
10:26 6.4 °C 1.3 °C 1009.7 hPa NW 16.1 km/h 30.6 km/h 70 % 0 mm 301 W/m2
10:31 6.5 °C 1.4 °C 1009.7 hPa NW 16.1 km/h 30.6 km/h 70 % 0 mm 306 W/m2
10:36 6.6 °C 1.5 °C 1009.7 hPa NW 19.3 km/h 35.4 km/h 70 % 0 mm 311 W/m2
10:41 6.7 °C 1.6 °C 1009.7 hPa NW 16.1 km/h 29 km/h 70 % 0 mm 315 W/m2
10:46 6.7 °C 1.6 °C 1010 hPa NW 19.3 km/h 33.8 km/h 70 % 0 mm 320 W/m2
10:51 6.8 °C 1.5 °C 1010 hPa NW 17.7 km/h 29 km/h 69 % 0 mm 329 W/m2
10:56 6.8 °C 1.3 °C 1010 hPa NW 19.3 km/h 33.8 km/h 68 % 0 mm 332 W/m2
11:01 6.9 °C 1.6 °C 1010.4 hPa NW 14.5 km/h 29 km/h 69 % 0 mm 336 W/m2
11:11 7.1 °C 1.8 °C 1010.4 hPa NW 12.9 km/h 22.5 km/h 69 % 0 mm 350 W/m2
11:16 7.3 °C 1.8 °C 1010.7 hPa NW 16.1 km/h 24.1 km/h 68 % 0 mm 404 W/m2
11:21 7.3 °C 1.6 °C 1011.1 hPa NW 16.1 km/h 29 km/h 67 % 0 mm 186 W/m2
11:26 7.2 °C 1.5 °C 1011.1 hPa NW 20.9 km/h 33.8 km/h 67 % 0 mm 134 W/m2
11:31 6.9 °C 1.2 °C 1011.1 hPa NW 17.7 km/h 32.2 km/h 67 % 0 mm 125 W/m2
11:36 6.8 °C 1.3 °C 1011.1 hPa NW 14.5 km/h 25.7 km/h 68 % 0 mm 125 W/m2
11:41 6.7 °C 1.2 °C 1011.4 hPa NW 14.5 km/h 25.7 km/h 68 % 0 mm 121 W/m2
11:46 6.8 °C 1.5 °C 1011.4 hPa NW 16.1 km/h 24.1 km/h 69 % 0 mm 346 W/m2
11:52 7.1 °C 1.8 °C 1011.7 hPa NW 17.7 km/h 30.6 km/h 69 % 0 mm 350 W/m2
11:57 7.3 °C 1.8 °C 1011.4 hPa NW 12.9 km/h 24.1 km/h 68 % 0 mm 355 W/m2
12:02 7.4 °C 1.7 °C 1011.7 hPa NW 12.9 km/h 20.9 km/h 67 % 0 mm 381 W/m2
12:07 7.6 °C 1.8 °C 1011.7 hPa NW 14.5 km/h 29 km/h 67 % 0 mm 380 W/m2
12:12 7.7 °C 1.7 °C 1011.7 hPa NW 16.1 km/h 25.7 km/h 66 % 0 mm 376 W/m2
12:17 7.8 °C 1.8 °C 1011.7 hPa NW 9.7 km/h 17.7 km/h 66 % 0 mm 139 W/m2
12:22 7.7 °C 1.7 °C 1011.7 hPa NW 12.9 km/h 22.5 km/h 66 % 0 mm 105 W/m2
12:27 7.6 °C 1.7 °C 1012.1 hPa NW 9.7 km/h 19.3 km/h 66 % 0 mm 100 W/m2
12:32 7.4 °C 1.4 °C 1012.1 hPa NNW 14.5 km/h 30.6 km/h 66 % 0 mm 95 W/m2
12:37 7.3 °C 1.6 °C 1012.1 hPa NW 17.7 km/h 33.8 km/h 67 % 0 mm 330 W/m2
12:42 7.4 °C 1.4 °C 1012.1 hPa NW 19.3 km/h 38.6 km/h 66 % 0 mm 330 W/m2
12:47 7.4 °C 1.4 °C 1012.1 hPa NNW 12.9 km/h 24.1 km/h 66 % 0 mm 318 W/m2
12:52 7.6 °C 1.7 °C 1012.1 hPa NW 20.9 km/h 35.4 km/h 66 % 0 mm 313 W/m2
12:57 7.7 °C 1.6 °C 1012.1 hPa NW 20.9 km/h 37 km/h 65 % 0 mm 309 W/m2
13:02 7.7 °C 1.6 °C 1012.4 hPa NW 17.7 km/h 32.2 km/h 65 % 0 mm 308 W/m2
13:07 7.8 °C 1.6 °C 1012.4 hPa NW 20.9 km/h 33.8 km/h 65 % 0 mm 306 W/m2
13:12 7.9 °C 1.7 °C 1012.4 hPa NW 17.7 km/h 38.6 km/h 65 % 0 mm 308 W/m2
13:17 8 °C 1.6 °C 1012.8 hPa NW 16.1 km/h 24.1 km/h 64 % 0 mm 308 W/m2
13:22 8.1 °C 1.5 °C 1012.8 hPa NW 17.7 km/h 32.2 km/h 63 % 0 mm 385 W/m2
13:27 8.2 °C 1.3 °C 1012.8 hPa NNW 17.7 km/h 30.6 km/h 62 % 0 mm 369 W/m2
13:32 8.2 °C 1.3 °C 1012.8 hPa NW 22.5 km/h 38.6 km/h 62 % 0 mm 292 W/m2
13:37 8.1 °C 1.2 °C 1013.1 hPa NW 12.9 km/h 24.1 km/h 62 % 0 mm 285 W/m2
13:42 8.1 °C 1.2 °C 1013.1 hPa NW 19.3 km/h 35.4 km/h 62 % 0 mm 267 W/m2
13:47 8.1 °C 1.2 °C 1013.1 hPa NNW 16.1 km/h 30.6 km/h 62 % 0 mm 179 W/m2
13:52 8 °C 0.9 °C 1013.1 hPa NW 25.7 km/h 40.2 km/h 61 % 0 mm 260 W/m2
13:57 8 °C 1.2 °C 1013.1 hPa NW 19.3 km/h 37 km/h 62 % 0 mm 255 W/m2
14:02 8 °C 1.2 °C 1013.4 hPa NW 17.7 km/h 35.4 km/h 62 % 0 mm 285 W/m2
14:07 7.9 °C 1.1 °C 1013.4 hPa NW 20.9 km/h 35.4 km/h 62 % 0 mm 211 W/m2
14:12 7.9 °C 1.3 °C 1013.4 hPa NW 17.7 km/h 30.6 km/h 63 % 0 mm 241 W/m2
14:17 8 °C 1.4 °C 1013.8 hPa NW 16.1 km/h 38.6 km/h 63 % 0 mm 192 W/m2
14:19 8 °C 1.2 °C 1013.8 hPa NW 22.5 km/h 38.6 km/h 62 % 0 mm 221 W/m2
14:24 7.9 °C 1.1 °C 1013.8 hPa NW 19.3 km/h 35.4 km/h 62 % 0 mm 86 W/m2
14:30 7.7 °C 0.9 °C 1013.8 hPa NW 19.3 km/h 33.8 km/h 62 % 0 mm 188 W/m2
14:35 7.7 °C 1.1 °C 1013.8 hPa NW 17.7 km/h 35.4 km/h 63 % 0 mm 174 W/m2
14:40 7.6 °C 1 °C 1013.8 hPa NW 20.9 km/h 35.4 km/h 63 % 0 mm 163 W/m2
14:45 7.6 °C 1 °C 1013.8 hPa NW 17.7 km/h 30.6 km/h 63 % 0 mm 160 W/m2
14:50 7.5 °C 0.9 °C 1014.1 hPa NW 16.1 km/h 24.1 km/h 63 % 0 mm 160 W/m2
14:55 7.4 °C 1.1 °C 1014.1 hPa NW 14.5 km/h 25.7 km/h 64 % 0 mm 146 W/m2
15:00 7.3 °C 0.7 °C 1014.1 hPa NW 16.1 km/h 29 km/h 63 % 0 mm 37 W/m2
15:05 7.2 °C 0.6 °C 1014.4 hPa NNW 16.1 km/h 30.6 km/h 63 % 0 mm 42 W/m2
15:10 7.1 °C 0.7 °C 1014.4 hPa NW 17.7 km/h 29 km/h 64 % 0 mm 46 W/m2
15:15 7.1 °C 0.7 °C 1014.8 hPa NW 11.3 km/h 22.5 km/h 64 % 0 mm 35 W/m2
15:20 7 °C 0.9 °C 1014.8 hPa NW 12.9 km/h 24.1 km/h 65 % 0 mm 33 W/m2
15:25 7 °C 0.9 °C 1014.8 hPa NW 9.7 km/h 29 km/h 65 % 0 mm 32 W/m2
15:30 7 °C 0.9 °C 1015.1 hPa NW 14.5 km/h 20.9 km/h 65 % 0 mm 23 W/m2
15:35 7.1 °C 0.7 °C 1015.1 hPa NW 14.5 km/h 29 km/h 64 % 0 mm 16 W/m2
15:40 7 °C 0.7 °C 1015.1 hPa NW 12.9 km/h 22.5 km/h 64 % 0 mm 12 W/m2
15:45 7 °C 0.9 °C 1015.5 hPa NW 12.9 km/h 25.7 km/h 65 % 0 mm 11 W/m2
15:50 6.9 °C 0.8 °C 1015.5 hPa NW 12.9 km/h 20.9 km/h 65 % 0 mm 9 W/m2
15:55 6.8 °C 0.7 °C 1015.8 hPa NW 14.5 km/h 22.5 km/h 65 % 0 mm 5 W/m2
16:00 6.8 °C 0.7 °C 1015.8 hPa NW 14.5 km/h 20.9 km/h 65 % 0 mm 5 W/m2
16:05 6.8 °C 0.9 °C 1015.8 hPa NW 12.9 km/h 22.5 km/h 66 % 0 mm 5 W/m2
16:10 6.7 °C 0.8 °C 1015.8 hPa NW 14.5 km/h 25.7 km/h 66 % 0 mm 0 W/m2
16:15 6.7 °C 0.8 °C 1016.1 hPa NW 14.5 km/h 30.6 km/h 66 % 0 mm 0 W/m2
16:20 6.7 °C 0.8 °C 1016.1 hPa NW 14.5 km/h 24.1 km/h 66 % 0 mm 0 W/m2
16:25 6.7 °C 0.8 °C 1016.1 hPa NW 14.5 km/h 32.2 km/h 66 % 0 mm 0 W/m2
16:30 6.6 °C 0.7 °C 1016.1 hPa NW 12.9 km/h 20.9 km/h 66 % 0 mm 0 W/m2
16:35 6.6 °C 0.5 °C 1016.5 hPa NW 11.3 km/h 20.9 km/h 65 % 0 mm 0 W/m2
16:40 6.6 °C 0.7 °C 1016.5 hPa NW 11.3 km/h 19.3 km/h 66 % 0 mm 0 W/m2
16:45 6.5 °C 0.4 °C 1016.5 hPa NW 12.9 km/h 19.3 km/h 65 % 0 mm 0 W/m2
16:50 6.5 °C 0.4 °C 1016.8 hPa NW 12.9 km/h 22.5 km/h 65 % 0 mm 0 W/m2
16:55 6.4 °C 0.3 °C 1016.8 hPa NW 19.3 km/h 30.6 km/h 65 % 0 mm 0 W/m2
17:00 6.5 °C 0.4 °C 1017.2 hPa NW 14.5 km/h 20.9 km/h 65 % 0 mm 0 W/m2
17:05 6.5 °C 0.4 °C 1017.2 hPa NW 14.5 km/h 25.7 km/h 65 % 0 mm 0 W/m2
17:10 6.5 °C 0.6 °C 1017.5 hPa NW 14.5 km/h 24.1 km/h 66 % 0 mm 0 W/m2
17:15 6.4 °C 0.5 °C 1017.5 hPa WNW 12.9 km/h 20.9 km/h 66 % 0 mm 0 W/m2
17:20 6.4 °C 0.5 °C 1017.5 hPa WNW 14.5 km/h 22.5 km/h 66 % 0 mm 0 W/m2
17:26 6.3 °C 0.6 °C 1017.5 hPa WNW 12.9 km/h 22.5 km/h 67 % 0 mm 0 W/m2
17:31 6.3 °C 0.6 °C 1017.8 hPa WNW 11.3 km/h 17.7 km/h 67 % 0 mm 0 W/m2
17:36 6.2 °C 0.5 °C 1017.8 hPa NW 14.5 km/h 25.7 km/h 67 % 0 mm 0 W/m2
17:41 6.2 °C 0.5 °C 1017.8 hPa WNW 12.9 km/h 19.3 km/h 67 % 0 mm 0 W/m2
17:46 6.2 °C 0.5 °C 1017.8 hPa WNW 17.7 km/h 32.2 km/h 67 % 0 mm 0 W/m2
17:51 6.2 °C 0.5 °C 1018.2 hPa WNW 11.3 km/h 22.5 km/h 67 % 0 mm 0 W/m2
17:56 6.1 °C 0.4 °C 1018.2 hPa NW 12.9 km/h 22.5 km/h 67 % 0 mm 0 W/m2
18:01 6.1 °C 0.4 °C 1018.5 hPa WNW 12.9 km/h 19.3 km/h 67 % 0 mm 0 W/m2
18:06 6.1 °C 0.4 °C 1018.5 hPa WNW 11.3 km/h 22.5 km/h 67 % 0 mm 0 W/m2
18:11 6 °C 0.6 °C 1018.5 hPa WNW 9.7 km/h 16.1 km/h 68 % 0 mm 0 W/m2
18:16 5.9 °C 0.4 °C 1018.5 hPa WNW 11.3 km/h 17.7 km/h 68 % 0 mm 0 W/m2
18:21 5.8 °C 0.3 °C 1018.8 hPa NW 11.3 km/h 20.9 km/h 68 % 0 mm 0 W/m2
18:26 5.7 °C 0.2 °C 1018.8 hPa WNW 16.1 km/h 24.1 km/h 68 % 0 mm 0 W/m2
18:31 5.6 °C 0.2 °C 1018.8 hPa WNW 11.3 km/h 17.7 km/h 68 % 0 mm 0 W/m2
18:36 5.5 °C 0.1 °C 1018.8 hPa WNW 11.3 km/h 17.7 km/h 68 % 0 mm 0 W/m2
18:41 5.4 °C 0.2 °C 1018.8 hPa WNW 9.7 km/h 16.1 km/h 69 % 0 mm 0 W/m2
18:46 5.3 °C 0.1 °C 1019.2 hPa WNW 9.7 km/h 16.1 km/h 69 % 0 mm 0 W/m2
18:51 5.2 °C -0.1 °C 1019.2 hPa WNW 9.7 km/h 17.7 km/h 69 % 0 mm 0 W/m2
18:56 5.2 °C -0.1 °C 1019.2 hPa WNW 9.7 km/h 14.5 km/h 69 % 0 mm 0 W/m2
19:01 5.1 °C -0.1 °C 1019.2 hPa WNW 9.7 km/h 14.5 km/h 69 % 0 mm 0 W/m2
19:06 5.1 °C -0.1 °C 1019.2 hPa NW 14.5 km/h 22.5 km/h 69 % 0 mm 0 W/m2
19:11 5.1 °C -0.1 °C 1019.5 hPa WNW 11.3 km/h 19.3 km/h 69 % 0 mm 0 W/m2
19:16 5.1 °C -0.1 °C 1019.5 hPa WNW 9.7 km/h 17.7 km/h 69 % 0 mm 0 W/m2
19:21 5.1 °C 0.1 °C 1019.5 hPa WNW 9.7 km/h 17.7 km/h 70 % 0 mm 0 W/m2
19:26 5 °C -0.2 °C 1019.5 hPa WNW 9.7 km/h 14.5 km/h 69 % 0 mm 0 W/m2
19:31 5 °C -0.2 °C 1019.9 hPa WNW 11.3 km/h 17.7 km/h 69 % 0 mm 0 W/m2
19:36 4.9 °C -0.3 °C 1019.9 hPa WNW 11.3 km/h 19.3 km/h 69 % 0 mm 0 W/m2
19:41 4.8 °C -0.4 °C 1020.2 hPa WNW 11.3 km/h 20.9 km/h 69 % 0 mm 0 W/m2
19:46 4.8 °C -0.4 °C 1020.2 hPa WNW 9.7 km/h 19.3 km/h 69 % 0 mm 0 W/m2
19:51 4.7 °C -0.5 °C 1020.2 hPa NW 12.9 km/h 19.3 km/h 69 % 0 mm 0 W/m2
19:56 4.7 °C -0.3 °C 1020.2 hPa WNW 11.3 km/h 19.3 km/h 70 % 0 mm 0 W/m2
20:01 4.7 °C -0.3 °C 1020.2 hPa WNW 11.3 km/h 22.5 km/h 70 % 0 mm 0 W/m2
20:07 4.6 °C -0.4 °C 1020.5 hPa WNW 12.9 km/h 17.7 km/h 70 % 0 mm 0 W/m2
20:12 4.6 °C -0.4 °C 1020.5 hPa WNW 11.3 km/h 20.9 km/h 70 % 0 mm 0 W/m2
20:17 4.5 °C -0.5 °C 1020.5 hPa WNW 14.5 km/h 19.3 km/h 70 % 0 mm 0 W/m2
20:22 4.5 °C -0.5 °C 1020.9 hPa WNW 12.9 km/h 19.3 km/h 70 % 0 mm 0 W/m2
20:27 4.4 °C -0.4 °C 1020.9 hPa WNW 14.5 km/h 22.5 km/h 71 % 0 mm 0 W/m2
20:32 4.4 °C -0.4 °C 1020.9 hPa WNW 12.9 km/h 19.3 km/h 71 % 0 mm 0 W/m2
20:37 4.3 °C -0.5 °C 1020.9 hPa NW 11.3 km/h 17.7 km/h 71 % 0 mm 0 W/m2
20:42 4.3 °C -0.5 °C 1020.9 hPa NW 9.7 km/h 17.7 km/h 71 % 0 mm 0 W/m2
20:47 4.2 °C -0.6 °C 1020.9 hPa WNW 11.3 km/h 19.3 km/h 71 % 0 mm 0 W/m2
20:52 4.1 °C -0.5 °C 1020.9 hPa NW 6.4 km/h 12.9 km/h 72 % 0 mm 0 W/m2
20:57 4.1 °C -0.5 °C 1021.2 hPa NW 8 km/h 16.1 km/h 72 % 0 mm 0 W/m2
21:02 4.1 °C -0.5 °C 1021.2 hPa WNW 9.7 km/h 16.1 km/h 72 % 0 mm 0 W/m2
21:07 4.1 °C -0.5 °C 1021.2 hPa WNW 11.3 km/h 17.7 km/h 72 % 0 mm 0 W/m2
21:12 4.1 °C -0.5 °C 1021.6 hPa WNW 8 km/h 12.9 km/h 72 % 0 mm 0 W/m2
21:17 4 °C -0.4 °C 1021.6 hPa WNW 9.7 km/h 17.7 km/h 73 % 0 mm 0 W/m2
21:22 3.9 °C -0.5 °C 1021.6 hPa WNW 6.4 km/h 14.5 km/h 73 % 0 mm 0 W/m2
21:24 3.8 °C -0.6 °C 1021.6 hPa WNW 8 km/h 14.5 km/h 73 % 0 mm 0 W/m2
21:27 3.8 °C -0.6 °C 1021.6 hPa WNW 8 km/h 14.5 km/h 73 % 0 mm 0 W/m2
21:32 3.7 °C -0.5 °C 1021.6 hPa WNW 6.4 km/h 12.9 km/h 74 % 0 mm 0 W/m2
21:37 3.6 °C -0.6 °C 1021.9 hPa WNW 8 km/h 12.9 km/h 74 % 0 mm 0 W/m2
21:42 3.6 °C -0.6 °C 1021.9 hPa WNW 9.7 km/h 14.5 km/h 74 % 0 mm 0 W/m2
21:47 3.5 °C -0.5 °C 1021.9 hPa NW 9.7 km/h 16.1 km/h 75 % 0 mm 0 W/m2
21:52 3.4 °C -0.6 °C 1021.9 hPa WNW 9.7 km/h 19.3 km/h 75 % 0 mm 0 W/m2
21:57 3.4 °C -0.6 °C 1021.9 hPa NW 11.3 km/h 22.5 km/h 75 % 0 mm 0 W/m2
22:02 3.5 °C -0.5 °C 1022.2 hPa NW 12.9 km/h 19.3 km/h 75 % 0 mm 0 W/m2
22:07 3.6 °C -0.6 °C 1022.2 hPa NW 12.9 km/h 25.7 km/h 74 % 0 mm 0 W/m2
22:12 3.7 °C -0.5 °C 1021.9 hPa NW 11.3 km/h 20.9 km/h 74 % 0 mm 0 W/m2
22:17 3.8 °C -0.6 °C 1021.9 hPa NW 16.1 km/h 22.5 km/h 73 % 0 mm 0 W/m2
22:22 3.9 °C -0.5 °C 1021.9 hPa NW 16.1 km/h 22.5 km/h 73 % 0 mm 0 W/m2
22:27 4 °C -0.6 °C 1021.9 hPa NW 12.9 km/h 20.9 km/h 72 % 0 mm 0 W/m2
22:32 4 °C -0.6 °C 1021.9 hPa NW 17.7 km/h 25.7 km/h 72 % 0 mm 0 W/m2
22:37 4 °C -0.6 °C 1022.2 hPa NW 12.9 km/h 19.3 km/h 72 % 0 mm 0 W/m2
22:42 4 °C -0.6 °C 1022.2 hPa NW 14.5 km/h 25.7 km/h 72 % 0 mm 0 W/m2
22:47 4 °C -0.6 °C 1022.2 hPa NW 16.1 km/h 24.1 km/h 72 % 0 mm 0 W/m2
22:52 4 °C -0.6 °C 1022.2 hPa NW 14.5 km/h 25.7 km/h 72 % 0 mm 0 W/m2
22:57 4 °C -0.6 °C 1022.6 hPa NW 14.5 km/h 24.1 km/h 72 % 0 mm 0 W/m2
23:02 4 °C -0.6 °C 1022.6 hPa NW 11.3 km/h 20.9 km/h 72 % 0 mm 0 W/m2
23:07 3.9 °C -0.7 °C 1022.6 hPa WNW 12.9 km/h 20.9 km/h 72 % 0 mm 0 W/m2
23:12 3.8 °C -0.8 °C 1022.6 hPa NW 11.3 km/h 16.1 km/h 72 % 0 mm 0 W/m2
23:17 3.8 °C -0.6 °C 1022.6 hPa NW 11.3 km/h 20.9 km/h 73 % 0 mm 0 W/m2
23:22 3.7 °C -0.7 °C 1022.6 hPa NW 12.9 km/h 22.5 km/h 73 % 0 mm 0 W/m2
23:27 3.7 °C -0.7 °C 1022.6 hPa NW 12.9 km/h 19.3 km/h 73 % 0 mm 0 W/m2
23:32 3.6 °C -0.8 °C 1022.6 hPa WNW 11.3 km/h 17.7 km/h 73 % 0 mm 0 W/m2
23:37 3.6 °C -0.6 °C 1022.9 hPa WNW 9.7 km/h 16.1 km/h 74 % 0 mm 0 W/m2
23:42 3.4 °C -0.8 °C 1022.9 hPa WNW 8 km/h 17.7 km/h 74 % 0 mm 0 W/m2
23:47 3.3 °C -0.9 °C 1022.9 hPa NW 8 km/h 12.9 km/h 74 % 0 mm 0 W/m2
23:52 3.2 °C -0.8 °C 1022.9 hPa NW 9.7 km/h 16.1 km/h 75 % 0 mm 0 W/m2
23:57 3.1 °C -0.9 °C 1022.9 hPa WNW 8 km/h 12.9 km/h 75 % 0 mm 0 W/m2
Delerius-Weather
Compliments of Weather Underground - 2.25 mb

Data updates at regular intervals.